Time;durP1;ratioP1;P1;durP2;ratioP2;P2;SDS_P1;SDS_P2;PMS_P1;PMS_P2;Temp;Humidity;BMP_temperature;BMP_pressure;BME280_temperature;BME280_humidity;BME280_pressure;Samples;Min_cycle;Max_cycle;Signal;HPM_P1;HPM_P2
2021/06/12 00:01:12;;;;;;;6.60;6.30;;;14.10;99.90;;;;;;5093996;28;20529;-50
2021/06/12 00:03:40;;;;;;;5.07;4.90;;;14.20;99.90;;;;;;5093859;28;20166;-48
2021/06/12 00:06:07;;;;;;;5.70;5.50;;;14.30;99.90;;;;;;5093834;28;20361;-51
2021/06/12 00:08:35;;;;;;;4.80;4.60;;;14.30;99.90;;;;;;5093780;28;20027;-52
2021/06/12 00:11:03;;;;;;;4.20;4.10;;;14.40;99.90;;;;;;5092777;28;20027;-48
2021/06/12 00:13:31;;;;;;;4.10;3.90;;;14.40;99.90;;;;;;5093701;28;20030;-49
2021/06/12 00:15:59;;;;;;;3.70;3.50;;;14.40;99.90;;;;;;5093611;28;20020;-48
2021/06/12 00:18:27;;;;;;;3.83;3.72;;;14.50;99.90;;;;;;5093642;28;20024;-52
2021/06/12 00:20:57;;;;;;;3.50;3.40;;;14.50;99.90;;;;;;5093555;28;20101;-48
2021/06/12 00:23:26;;;;;;;3.70;3.60;;;14.50;99.90;;;;;;5093616;28;20027;-52
2021/06/12 00:25:54;;;;;;;3.38;3.28;;;14.60;99.70;;;;;;5093582;28;20028;-54
2021/06/12 00:28:21;;;;;;;3.50;3.40;;;14.60;99.40;;;;;;5093661;28;20020;-52
2021/06/12 00:30:48;;;;;;;3.30;3.10;;;14.60;99.20;;;;;;5093443;28;20032;-52
2021/06/12 00:33:16;;;;;;;3.03;2.92;;;14.50;98.50;;;;;;5093454;28;20020;-53
2021/06/12 00:35:44;;;;;;;3.17;3.00;;;14.60;98.60;;;;;;5093342;28;20063;-50
2021/06/12 00:38:12;;;;;;;3.20;3.10;;;14.70;99.30;;;;;;5092012;28;20020;-49
2021/06/12 00:40:39;;;;;;;3.42;3.33;;;14.60;98.80;;;;;;5093139;28;20492;-51
2021/06/12 00:43:06;;;;;;;3.63;3.53;;;14.70;99.50;;;;;;5093358;28;20040;-48
2021/06/12 00:45:34;;;;;;;3.50;3.40;;;14.70;99.30;;;;;;5093237;28;20058;-52
2021/06/12 00:48:02;;;;;;;4.00;3.90;;;14.90;99.20;;;;;;5093079;28;20519;-52
2021/06/12 00:50:32;;;;;;;4.05;3.90;;;15.10;98.70;;;;;;5093243;28;20016;-52
2021/06/12 00:53:01;;;;;;;2.95;2.85;;;15.10;99.40;;;;;;5093283;28;20034;-52
2021/06/12 00:55:28;;;;;;;3.97;3.78;;;15.10;98.70;;;;;;5093383;28;20024;-53
2021/06/12 00:57:57;;;;;;;3.50;3.40;;;15.10;98.40;;;;;;5093045;28;20024;-52
2021/06/12 01:00:24;;;;;;;3.70;3.60;;;15.10;97.50;;;;;;5093076;28;20020;-49
2021/06/12 01:02:53;;;;;;;3.85;3.75;;;15.10;97.50;;;;;;5092861;28;20058;-51
2021/06/12 01:05:22;;;;;;;3.45;3.35;;;15.10;98.00;;;;;;5092953;28;20059;-50
2021/06/12 01:07:50;;;;;;;3.80;3.60;;;15.20;96.90;;;;;;5092997;28;20102;-52
2021/06/12 01:10:19;;;;;;;3.60;3.50;;;15.30;97.70;;;;;;5093076;28;20023;-52
2021/06/12 01:12:46;;;;;;;3.80;3.70;;;15.40;98.00;;;;;;5092915;28;20044;-52
2021/06/12 01:15:14;;;;;;;3.25;3.15;;;15.50;97.10;;;;;;5093058;28;20028;-50
2021/06/12 01:18:02;;;;;;;3.35;3.25;;;15.50;97.10;;;;;;5092808;28;20110;-51
2021/06/12 01:20:53;;;;;;;3.53;3.42;;;15.60;97.40;;;;;;5092846;28;20024;-54
2021/06/12 01:23:28;;;;;;;3.67;3.58;;;15.70;96.90;;;;;;5096406;28;20032;-51
2021/06/12 01:26:10;;;;;;;3.60;3.50;;;15.70;97.00;;;;;;5097234;28;20024;-51
2021/06/12 01:28:59;;;;;;;3.67;3.50;;;15.80;97.30;;;;;;5096898;28;20054;-54
2021/06/12 01:31:28;;;;;;;3.88;3.70;;;15.70;96.90;;;;;;5096822;28;20534;-52
2021/06/12 01:33:57;;;;;;;3.72;3.55;;;15.90;96.50;;;;;;5096671;28;20481;-51
2021/06/12 01:36:26;;;;;;;3.85;3.75;;;15.90;96.40;;;;;;5096833;28;20024;-51
2021/06/12 01:38:56;;;;;;;3.92;3.83;;;16.00;96.80;;;;;;5096670;28;20024;-53
2021/06/12 01:41:24;;;;;;;3.78;3.58;;;16.30;96.20;;;;;;5096595;28;20444;-52
2021/06/12 01:43:52;;;;;;;3.47;3.30;;;16.20;95.90;;;;;;5096320;28;20412;-53
2021/06/12 01:46:20;;;;;;;3.50;3.40;;;16.10;95.60;;;;;;5096470;28;20074;-53
2021/06/12 01:48:48;;;;;;;3.85;3.70;;;16.10;95.70;;;;;;5096168;28;20028;-47
2021/06/12 01:51:18;;;;;;;3.80;3.70;;;16.10;96.30;;;;;;5096221;28;20032;-52
2021/06/12 01:53:45;;;;;;;4.10;3.90;;;16.30;95.90;;;;;;5096322;28;20020;-54
2021/06/12 01:56:14;;;;;;;3.92;3.83;;;16.30;95.20;;;;;;5096329;28;20082;-49
2021/06/12 01:58:44;;;;;;;3.83;3.72;;;16.20;95.30;;;;;;5096306;28;20448;-49
2021/06/12 02:01:17;;;;;;;3.97;3.78;;;16.40;95.70;;;;;;5096366;28;20031;-54
2021/06/12 02:03:46;;;;;;;3.50;3.40;;;16.70;95.30;;;;;;5096390;28;20434;-52
2021/06/12 02:06:18;;;;;;;3.90;3.80;;;16.60;94.10;;;;;;5096140;28;20035;-52
2021/06/12 02:08:47;;;;;;;3.75;3.55;;;16.70;94.50;;;;;;5095990;28;20024;-51
2021/06/12 02:11:19;;;;;;;4.20;4.00;;;16.80;94.40;;;;;;5096146;28;20024;-55
2021/06/12 02:13:47;;;;;;;3.80;3.70;;;17.00;95.20;;;;;;5096021;28;20099;-52
2021/06/12 02:16:15;;;;;;;3.80;3.70;;;17.10;94.30;;;;;;5095966;28;20020;-51
2021/06/12 02:18:46;;;;;;;2.90;2.80;;;17.30;94.10;;;;;;5095904;28;20166;-53
2021/06/12 02:21:16;;;;;;;3.40;3.30;;;17.40;94.00;;;;;;5095980;28;20028;-52
2021/06/12 02:23:44;;;;;;;3.30;3.10;;;17.30;95.10;;;;;;5095789;28;20032;-50
2021/06/12 02:26:14;;;;;;;3.00;2.90;;;17.40;94.30;;;;;;5095780;28;20077;-51
2021/06/12 02:28:44;;;;;;;3.10;2.92;;;17.30;92.50;;;;;;5096116;28;20020;-52
2021/06/12 02:31:32;;;;;;;3.10;3.00;;;17.30;93.20;;;;;;5096252;28;20028;-52
2021/06/12 02:33:59;;;;;;;3.58;3.40;;;17.30;92.50;;;;;;5094440;28;20541;-53
2021/06/12 02:36:26;;;;;;;3.50;3.30;;;17.30;91.90;;;;;;5095849;28;20186;-52
2021/06/12 02:38:54;;;;;;;3.50;3.30;;;17.40;91.90;;;;;;5095505;28;20028;-53
2021/06/12 02:41:22;;;;;;;3.28;3.17;;;17.50;91.60;;;;;;5095427;28;20074;-53
2021/06/12 02:43:49;;;;;;;3.13;3.03;;;17.40;91.80;;;;;;5095337;28;20131;-53
2021/06/12 02:46:24;;;;;;;3.20;3.10;;;17.40;91.00;;;;;;5095503;28;20016;-50
2021/06/12 02:48:57;;;;;;;3.53;3.42;;;17.20;90.70;;;;;;5095157;28;20039;-52
2021/06/12 02:51:25;;;;;;;3.28;3.17;;;17.30;91.50;;;;;;5095548;28;20369;-49
2021/06/12 02:53:53;;;;;;;3.28;3.17;;;17.40;90.20;;;;;;5095175;28;20384;-54
2021/06/12 02:56:22;;;;;;;3.10;3.00;;;17.30;90.50;;;;;;5095200;28;20103;-56
2021/06/12 02:58:51;;;;;;;3.13;3.00;;;17.60;90.30;;;;;;5094997;28;20034;-55
2021/06/12 03:01:19;;;;;;;3.55;3.38;;;17.50;90.70;;;;;;5095059;28;20024;-55
2021/06/12 03:03:47;;;;;;;3.17;3.08;;;17.50;90.20;;;;;;5095090;28;20036;-56
2021/06/12 03:06:18;;;;;;;3.17;3.08;;;17.40;90.10;;;;;;5094935;28;20500;-56
2021/06/12 03:29:15;;;;;;;3.30;3.20;;;17.20;90.20;;;;;;5050554;27;20404;-61
2021/06/12 03:31:43;;;;;;;2.85;2.75;;;17.60;89.80;;;;;;5050132;28;20100;-62
2021/06/12 03:34:11;;;;;;;3.28;3.17;;;17.60;88.70;;;;;;5050114;28;20014;-60
2021/06/12 03:36:39;;;;;;;2.58;2.47;;;17.60;89.60;;;;;;5050159;28;20021;-61
2021/06/12 03:39:09;;;;;;;3.30;3.20;;;17.60;90.10;;;;;;5049961;28;20017;-60
